Christmas Lake Village, Indiana
Current Conditions -  °F | °C
As of 8:35 AM on Sunday 25 Jan 2015 (Local Time) from KHNB Reporting Station
Overcast Overcast  
Wind Chill: 34°   Ceiling: 8500
Heat Index: 39°   Visibility: 10mi
Dew Point: 30°   Wind: 7mph
Humidity: 70%   Direction: 160°SSE
Pressure: 29.68"   Gusts: NA
Location:  38.0869°N, 86.8913°W
Report Text: KHNB 251435Z AUTO 16006KT 10SM OVC085 04/M01 A2968 RMK AO1
Loading
Personal Weather Stations






























Interactive Weather Map New forecast layout! Learn more

10-Day Weather Forecast

Advertisements
Track Severe Weather on mobile